sensor_id;sensor_type;location;lat;lon;timestamp;P1;durP1;ratioP1;P2;durP2;ratioP2
41709;SDS011;59402;48.396;-4.472;2023-02-19T00:00:55;17.02;;;5.40;;
41709;SDS011;59402;48.396;-4.472;2023-02-19T00:03:21;23.27;;;4.88;;
41709;SDS011;59402;48.396;-4.472;2023-02-19T00:05:47;21.80;;;5.38;;
41709;SDS011;59402;48.396;-4.472;2023-02-19T00:08:12;18.58;;;5.10;;
41709;SDS011;59402;48.396;-4.472;2023-02-19T00:10:38;15.73;;;5.10;;
41709;SDS011;59402;48.396;-4.472;2023-02-19T00:13:04;22.88;;;5.50;;
41709;SDS011;59402;48.396;-4.472;2023-02-19T00:15:33;26.63;;;6.20;;
41709;SDS011;59402;48.396;-4.472;2023-02-19T00:17:59;21.40;;;5.95;;
41709;SDS011;59402;48.396;-4.472;2023-02-19T00:20:25;20.83;;;6.25;;
41709;SDS011;59402;48.396;-4.472;2023-02-19T00:22:51;22.77;;;5.93;;
41709;SDS011;59402;48.396;-4.472;2023-02-19T00:25:16;21.52;;;5.57;;
41709;SDS011;59402;48.396;-4.472;2023-02-19T00:27:42;20.55;;;6.07;;
41709;SDS011;59402;48.396;-4.472;2023-02-19T00:30:08;21.27;;;6.82;;
41709;SDS011;59402;48.396;-4.472;2023-02-19T00:32:34;29.77;;;8.13;;
41709;SDS011;59402;48.396;-4.472;2023-02-19T00:35:00;26.98;;;6.95;;
41709;SDS011;59402;48.396;-4.472;2023-02-19T00:37:25;21.48;;;6.05;;
41709;SDS011;59402;48.396;-4.472;2023-02-19T00:39:51;23.38;;;6.15;;
41709;SDS011;59402;48.396;-4.472;2023-02-19T00:42:17;27.90;;;7.47;;
41709;SDS011;59402;48.396;-4.472;2023-02-19T00:44:43;22.88;;;6.15;;
41709;SDS011;59402;48.396;-4.472;2023-02-19T00:47:10;23.35;;;6.35;;
41709;SDS011;59402;48.396;-4.472;2023-02-19T00:49:37;16.42;;;6.18;;
41709;SDS011;59402;48.396;-4.472;2023-02-19T00:52:03;22.15;;;5.85;;
41709;SDS011;59402;48.396;-4.472;2023-02-19T00:54:29;29.80;;;6.35;;
41709;SDS011;59402;48.396;-4.472;2023-02-19T00:56:57;24.35;;;6.13;;
41709;SDS011;59402;48.396;-4.472;2023-02-19T00:59:22;27.58;;;7.47;;
41709;SDS011;59402;48.396;-4.472;2023-02-19T01:01:48;22.67;;;6.75;;
41709;SDS011;59402;48.396;-4.472;2023-02-19T01:04:15;22.48;;;7.07;;
41709;SDS011;59402;48.396;-4.472;2023-02-19T01:06:41;25.02;;;6.10;;
41709;SDS011;59402;48.396;-4.472;2023-02-19T01:09:07;24.15;;;6.75;;
41709;SDS011;59402;48.396;-4.472;2023-02-19T01:11:33;26.20;;;7.68;;
41709;SDS011;59402;48.396;-4.472;2023-02-19T01:13:59;25.73;;;7.93;;
41709;SDS011;59402;48.396;-4.472;2023-02-19T01:16:26;26.37;;;7.53;;
41709;SDS011;59402;48.396;-4.472;2023-02-19T01:18:52;22.25;;;6.25;;
41709;SDS011;59402;48.396;-4.472;2023-02-19T01:21:22;26.38;;;6.97;;
41709;SDS011;59402;48.396;-4.472;2023-02-19T01:23:49;21.90;;;5.63;;
41709;SDS011;59402;48.396;-4.472;2023-02-19T01:26:20;21.98;;;5.85;;
41709;SDS011;59402;48.396;-4.472;2023-02-19T01:28:49;19.92;;;4.13;;
41709;SDS011;59402;48.396;-4.472;2023-02-19T01:31:16;24.08;;;4.25;;
41709;SDS011;59402;48.396;-4.472;2023-02-19T01:33:44;17.23;;;4.07;;
41709;SDS011;59402;48.396;-4.472;2023-02-19T01:36:11;21.30;;;3.90;;
41709;SDS011;59402;48.396;-4.472;2023-02-19T01:38:37;17.80;;;4.38;;
41709;SDS011;59402;48.396;-4.472;2023-02-19T01:41:04;24.58;;;3.97;;
41709;SDS011;59402;48.396;-4.472;2023-02-19T01:43:32;16.88;;;3.38;;
41709;SDS011;59402;48.396;-4.472;2023-02-19T01:45:58;18.90;;;3.70;;
41709;SDS011;59402;48.396;-4.472;2023-02-19T01:48:26;23.48;;;3.83;;
41709;SDS011;59402;48.396;-4.472;2023-02-19T01:53:25;20.23;;;3.50;;
41709;SDS011;59402;48.396;-4.472;2023-02-19T01:55:54;17.58;;;3.45;;
41709;SDS011;59402;48.396;-4.472;2023-02-19T01:58:22;16.88;;;3.55;;
41709;SDS011;59402;48.396;-4.472;2023-02-19T02:00:49;20.90;;;4.15;;
41709;SDS011;59402;48.396;-4.472;2023-02-19T02:03:16;20.30;;;4.10;;
41709;SDS011;59402;48.396;-4.472;2023-02-19T02:11:19;25.60;;;4.75;;
41709;SDS011;59402;48.396;-4.472;2023-02-19T02:13:45;24.83;;;5.15;;
41709;SDS011;59402;48.396;-4.472;2023-02-19T02:16:24;22.63;;;4.53;;
41709;SDS011;59402;48.396;-4.472;2023-02-19T02:19:06;21.17;;;5.22;;
41709;SDS011;59402;48.396;-4.472;2023-02-19T02:22:10;17.05;;;4.10;;
41709;SDS011;59402;48.396;-4.472;2023-02-19T02:25:04;18.50;;;3.67;;
41709;SDS011;59402;48.396;-4.472;2023-02-19T02:28:05;15.35;;;3.15;;
41709;SDS011;59402;48.396;-4.472;2023-02-19T02:31:01;26.85;;;3.72;;
41709;SDS011;59402;48.396;-4.472;2023-02-19T02:33:45;19.10;;;3.42;;
41709;SDS011;59402;48.396;-4.472;2023-02-19T02:36:26;22.17;;;3.38;;
41709;SDS011;59402;48.396;-4.472;2023-02-19T02:38:53;17.20;;;3.13;;
41709;SDS011;59402;48.396;-4.472;2023-02-19T02:43:47;20.83;;;3.28;;
41709;SDS011;59402;48.396;-4.472;2023-02-19T02:46:16;21.77;;;4.18;;
41709;SDS011;59402;48.396;-4.472;2023-02-19T02:48:48;13.32;;;2.75;;
41709;SDS011;59402;48.396;-4.472;2023-02-19T02:51:37;12.45;;;3.10;;
41709;SDS011;59402;48.396;-4.472;2023-02-19T02:54:20;20.02;;;3.25;;
41709;SDS011;59402;48.396;-4.472;2023-02-19T02:57:10;22.40;;;3.05;;
41709;SDS011;59402;48.396;-4.472;2023-02-19T02:59:43;16.92;;;3.30;;
41709;SDS011;59402;48.396;-4.472;2023-02-19T03:02:13;17.25;;;3.78;;
41709;SDS011;59402;48.396;-4.472;2023-02-19T03:07:52;17.35;;;3.15;;
41709;SDS011;59402;48.396;-4.472;2023-02-19T03:10:38;21.13;;;3.67;;
41709;SDS011;59402;48.396;-4.472;2023-02-19T03:13:12;17.98;;;3.17;;
41709;SDS011;59402;48.396;-4.472;2023-02-19T03:16:25;19.50;;;2.80;;
41709;SDS011;59402;48.396;-4.472;2023-02-19T03:19:12;17.90;;;2.90;;
41709;SDS011;59402;48.396;-4.472;2023-02-19T03:22:01;22.60;;;3.35;;
41709;SDS011;59402;48.396;-4.472;2023-02-19T03:24:35;20.13;;;3.45;;
41709;SDS011;59402;48.396;-4.472;2023-02-19T03:27:24;18.95;;;2.60;;
41709;SDS011;59402;48.396;-4.472;2023-02-19T03:29:53;16.95;;;3.15;;
41709;SDS011;59402;48.396;-4.472;2023-02-19T03:32:28;15.20;;;3.22;;
41709;SDS011;59402;48.396;-4.472;2023-02-19T03:35:08;16.58;;;2.58;;
41709;SDS011;59402;48.396;-4.472;2023-02-19T03:37:40;18.75;;;3.20;;
41709;SDS011;59402;48.396;-4.472;2023-02-19T03:40:33;15.70;;;2.95;;
41709;SDS011;59402;48.396;-4.472;2023-02-19T03:43:17;18.67;;;2.20;;
41709;SDS011;59402;48.396;-4.472;2023-02-19T03:48:34;18.98;;;2.72;;
41709;SDS011;59402;48.396;-4.472;2023-02-19T03:53:44;19.02;;;2.90;;
41709;SDS011;59402;48.396;-4.472;2023-02-19T03:56:27;16.23;;;2.85;;
41709;SDS011;59402;48.396;-4.472;2023-02-19T03:59:33;16.13;;;3.08;;
41709;SDS011;59402;48.396;-4.472;2023-02-19T04:02:12;13.57;;;2.22;;
41709;SDS011;59402;48.396;-4.472;2023-02-19T04:04:44;17.75;;;2.80;;
41709;SDS011;59402;48.396;-4.472;2023-02-19T04:07:15;18.67;;;2.97;;
41709;SDS011;59402;48.396;-4.472;2023-02-19T04:09:46;21.33;;;2.90;;
41709;SDS011;59402;48.396;-4.472;2023-02-19T04:12:16;13.43;;;2.92;;
41709;SDS011;59402;48.396;-4.472;2023-02-19T04:17:12;19.52;;;3.03;;
41709;SDS011;59402;48.396;-4.472;2023-02-19T04:19:47;17.45;;;3.88;;
41709;SDS011;59402;48.396;-4.472;2023-02-19T04:22:15;20.55;;;2.80;;
41709;SDS011;59402;48.396;-4.472;2023-02-19T04:24:51;20.63;;;3.08;;
41709;SDS011;59402;48.396;-4.472;2023-02-19T04:27:17;13.13;;;2.33;;
41709;SDS011;59402;48.396;-4.472;2023-02-19T04:29:43;22.55;;;2.97;;
41709;SDS011;59402;48.396;-4.472;2023-02-19T04:32:10;18.27;;;2.55;;
41709;SDS011;59402;48.396;-4.472;2023-02-19T04:34:36;17.48;;;2.30;;
41709;SDS011;59402;48.396;-4.472;2023-02-19T04:37:02;16.48;;;2.33;;
41709;SDS011;59402;48.396;-4.472;2023-02-19T04:39:27;21.45;;;3.08;;
41709;SDS011;59402;48.396;-4.472;2023-02-19T04:41:53;13.52;;;2.55;;
41709;SDS011;59402;48.396;-4.472;2023-02-19T04:44:19;13.05;;;2.15;;
41709;SDS011;59402;48.396;-4.472;2023-02-19T04:46:45;14.55;;;2.25;;
41709;SDS011;59402;48.396;-4.472;2023-02-19T04:49:10;15.00;;;2.22;;
41709;SDS011;59402;48.396;-4.472;2023-02-19T04:51:36;10.88;;;2.22;;
41709;SDS011;59402;48.396;-4.472;2023-02-19T04:54:03;16.08;;;2.45;;
41709;SDS011;59402;48.396;-4.472;2023-02-19T04:56:28;9.80;;;2.13;;
41709;SDS011;59402;48.396;-4.472;2023-02-19T04:58:56;13.00;;;1.98;;
41709;SDS011;59402;48.396;-4.472;2023-02-19T05:01:22;19.05;;;2.70;;
41709;SDS011;59402;48.396;-4.472;2023-02-19T05:03:49;13.18;;;2.10;;
41709;SDS011;59402;48.396;-4.472;2023-02-19T05:06:15;24.88;;;3.72;;
41709;SDS011;59402;48.396;-4.472;2023-02-19T05:08:41;13.43;;;3.22;;
41709;SDS011;59402;48.396;-4.472;2023-02-19T05:11:08;15.88;;;3.20;;
41709;SDS011;59402;48.396;-4.472;2023-02-19T05:13:35;13.63;;;2.65;;
41709;SDS011;59402;48.396;-4.472;2023-02-19T05:16:02;16.58;;;2.83;;
41709;SDS011;59402;48.396;-4.472;2023-02-19T05:18:30;15.57;;;2.75;;
41709;SDS011;59402;48.396;-4.472;2023-02-19T05:20:57;16.35;;;2.85;;
41709;SDS011;59402;48.396;-4.472;2023-02-19T05:23:23;13.20;;;2.03;;
41709;SDS011;59402;48.396;-4.472;2023-02-19T05:25:49;12.63;;;2.35;;
41709;SDS011;59402;48.396;-4.472;2023-02-19T05:28:15;11.30;;;2.15;;
41709;SDS011;59402;48.396;-4.472;2023-02-19T05:30:41;15.98;;;2.17;;
41709;SDS011;59402;48.396;-4.472;2023-02-19T05:33:14;8.32;;;1.77;;
41709;SDS011;59402;48.396;-4.472;2023-02-19T05:35:41;13.38;;;2.25;;
41709;SDS011;59402;48.396;-4.472;2023-02-19T05:38:07;10.57;;;1.63;;
41709;SDS011;59402;48.396;-4.472;2023-02-19T05:40:33;14.95;;;2.15;;
41709;SDS011;59402;48.396;-4.472;2023-02-19T05:42:59;18.55;;;2.90;;
41709;SDS011;59402;48.396;-4.472;2023-02-19T05:45:25;15.70;;;2.22;;
41709;SDS011;59402;48.396;-4.472;2023-02-19T05:47:50;11.60;;;2.45;;
41709;SDS011;59402;48.396;-4.472;2023-02-19T05:50:16;12.75;;;2.35;;
41709;SDS011;59402;48.396;-4.472;2023-02-19T05:52:42;17.13;;;2.33;;
41709;SDS011;59402;48.396;-4.472;2023-02-19T05:55:08;14.82;;;2.22;;
41709;SDS011;59402;48.396;-4.472;2023-02-19T05:57:41;9.93;;;1.92;;
41709;SDS011;59402;48.396;-4.472;2023-02-19T06:00:09;16.38;;;2.63;;
41709;SDS011;59402;48.396;-4.472;2023-02-19T06:02:37;9.65;;;1.85;;
41709;SDS011;59402;48.396;-4.472;2023-02-19T06:05:03;13.02;;;2.85;;
41709;SDS011;59402;48.396;-4.472;2023-02-19T06:07:30;16.60;;;2.88;;
41709;SDS011;59402;48.396;-4.472;2023-02-19T06:09:56;12.27;;;2.22;;
41709;SDS011;59402;48.396;-4.472;2023-02-19T06:12:22;14.50;;;2.55;;
41709;SDS011;59402;48.396;-4.472;2023-02-19T06:14:48;10.98;;;1.95;;
41709;SDS011;59402;48.396;-4.472;2023-02-19T06:17:14;17.23;;;2.20;;
41709;SDS011;59402;48.396;-4.472;2023-02-19T06:19:40;13.05;;;2.08;;
41709;SDS011;59402;48.396;-4.472;2023-02-19T06:22:06;12.77;;;2.40;;
41709;SDS011;59402;48.396;-4.472;2023-02-19T06:24:32;11.30;;;2.15;;
41709;SDS011;59402;48.396;-4.472;2023-02-19T06:26:58;16.02;;;2.17;;
41709;SDS011;59402;48.396;-4.472;2023-02-19T06:29:23;13.23;;;2.30;;
41709;SDS011;59402;48.396;-4.472;2023-02-19T06:31:49;12.35;;;2.55;;
41709;SDS011;59402;48.396;-4.472;2023-02-19T06:34:15;10.95;;;1.73;;
41709;SDS011;59402;48.396;-4.472;2023-02-19T06:36:41;14.65;;;1.80;;
41709;SDS011;59402;48.396;-4.472;2023-02-19T06:39:06;10.45;;;1.38;;
41709;SDS011;59402;48.396;-4.472;2023-02-19T06:41:33;11.00;;;1.60;;
41709;SDS011;59402;48.396;-4.472;2023-02-19T06:43:59;11.32;;;1.83;;
41709;SDS011;59402;48.396;-4.472;2023-02-19T06:46:25;15.40;;;1.75;;
41709;SDS011;59402;48.396;-4.472;2023-02-19T06:48:50;15.80;;;2.05;;
41709;SDS011;59402;48.396;-4.472;2023-02-19T06:51:17;12.23;;;2.00;;
41709;SDS011;59402;48.396;-4.472;2023-02-19T06:53:43;11.48;;;1.70;;
41709;SDS011;59402;48.396;-4.472;2023-02-19T06:58:56;13.35;;;1.92;;
41709;SDS011;59402;48.396;-4.472;2023-02-19T07:01:24;13.75;;;1.48;;
41709;SDS011;59402;48.396;-4.472;2023-02-19T07:03:50;10.30;;;1.90;;
41709;SDS011;59402;48.396;-4.472;2023-02-19T07:06:17;9.43;;;1.30;;
41709;SDS011;59402;48.396;-4.472;2023-02-19T07:08:43;6.90;;;1.42;;
41709;SDS011;59402;48.396;-4.472;2023-02-19T07:11:09;8.80;;;1.20;;
41709;SDS011;59402;48.396;-4.472;2023-02-19T07:13:35;8.80;;;1.30;;
41709;SDS011;59402;48.396;-4.472;2023-02-19T07:16:02;10.02;;;1.88;;
41709;SDS011;59402;48.396;-4.472;2023-02-19T07:18:29;9.50;;;1.58;;
41709;SDS011;59402;48.396;-4.472;2023-02-19T07:21:02;4.05;;;1.05;;
41709;SDS011;59402;48.396;-4.472;2023-02-19T07:23:35;8.30;;;1.30;;
41709;SDS011;59402;48.396;-4.472;2023-02-19T07:26:01;8.45;;;1.58;;
41709;SDS011;59402;48.396;-4.472;2023-02-19T07:28:27;9.75;;;1.27;;
41709;SDS011;59402;48.396;-4.472;2023-02-19T07:30:53;10.85;;;1.65;;
41709;SDS011;59402;48.396;-4.472;2023-02-19T07:33:23;8.77;;;1.63;;
41709;SDS011;59402;48.396;-4.472;2023-02-19T07:35:49;11.10;;;1.63;;
41709;SDS011;59402;48.396;-4.472;2023-02-19T07:38:19;7.68;;;1.13;;
41709;SDS011;59402;48.396;-4.472;2023-02-19T07:40:51;8.40;;;1.48;;
41709;SDS011;59402;48.396;-4.472;2023-02-19T07:43:18;7.20;;;1.42;;
41709;SDS011;59402;48.396;-4.472;2023-02-19T07:45:44;11.35;;;2.30;;
41709;SDS011;59402;48.396;-4.472;2023-02-19T07:48:09;8.65;;;1.23;;
41709;SDS011;59402;48.396;-4.472;2023-02-19T07:50:35;9.75;;;1.65;;
41709;SDS011;59402;48.396;-4.472;2023-02-19T07:53:01;9.52;;;1.48;;
41709;SDS011;59402;48.396;-4.472;2023-02-19T07:55:26;13.45;;;1.98;;
41709;SDS011;59402;48.396;-4.472;2023-02-19T07:57:52;14.02;;;1.83;;
41709;SDS011;59402;48.396;-4.472;2023-02-19T08:00:18;11.07;;;1.83;;
41709;SDS011;59402;48.396;-4.472;2023-02-19T08:02:44;8.90;;;1.38;;
41709;SDS011;59402;48.396;-4.472;2023-02-19T08:05:26;10.95;;;1.40;;
41709;SDS011;59402;48.396;-4.472;2023-02-19T08:07:54;8.25;;;1.77;;
41709;SDS011;59402;48.396;-4.472;2023-02-19T08:10:20;8.95;;;2.25;;
41709;SDS011;59402;48.396;-4.472;2023-02-19T08:13:04;13.73;;;2.63;;
41709;SDS011;59402;48.396;-4.472;2023-02-19T08:15:52;9.63;;;1.95;;
41709;SDS011;59402;48.396;-4.472;2023-02-19T08:18:20;8.32;;;1.52;;
41709;SDS011;59402;48.396;-4.472;2023-02-19T08:20:48;7.88;;;1.40;;
41709;SDS011;59402;48.396;-4.472;2023-02-19T08:23:14;6.80;;;1.75;;
41709;SDS011;59402;48.396;-4.472;2023-02-19T08:25:41;10.63;;;1.92;;
41709;SDS011;59402;48.396;-4.472;2023-02-19T08:28:08;10.05;;;1.77;;
41709;SDS011;59402;48.396;-4.472;2023-02-19T08:33:02;9.65;;;1.90;;
41709;SDS011;59402;48.396;-4.472;2023-02-19T08:35:28;10.20;;;1.80;;
41709;SDS011;59402;48.396;-4.472;2023-02-19T08:37:55;12.55;;;1.83;;
41709;SDS011;59402;48.396;-4.472;2023-02-19T08:40:21;10.70;;;1.88;;
41709;SDS011;59402;48.396;-4.472;2023-02-19T08:42:47;11.70;;;1.83;;
41709;SDS011;59402;48.396;-4.472;2023-02-19T08:45:13;12.10;;;2.22;;
41709;SDS011;59402;48.396;-4.472;2023-02-19T08:47:38;8.15;;;1.55;;
41709;SDS011;59402;48.396;-4.472;2023-02-19T08:50:05;7.65;;;1.35;;
41709;SDS011;59402;48.396;-4.472;2023-02-19T08:52:31;14.15;;;2.40;;
41709;SDS011;59402;48.396;-4.472;2023-02-19T08:54:59;8.57;;;1.60;;
41709;SDS011;59402;48.396;-4.472;2023-02-19T08:57:25;14.63;;;2.03;;
41709;SDS011;59402;48.396;-4.472;2023-02-19T08:59:53;11.40;;;2.38;;
41709;SDS011;59402;48.396;-4.472;2023-02-19T09:02:23;9.93;;;2.08;;
41709;SDS011;59402;48.396;-4.472;2023-02-19T09:04:49;11.48;;;1.95;;
41709;SDS011;59402;48.396;-4.472;2023-02-19T09:07:14;8.98;;;1.80;;
41709;SDS011;59402;48.396;-4.472;2023-02-19T09:09:40;11.77;;;1.90;;
41709;SDS011;59402;48.396;-4.472;2023-02-19T09:12:07;10.15;;;1.88;;
41709;SDS011;59402;48.396;-4.472;2023-02-19T09:14:33;14.13;;;1.85;;
41709;SDS011;59402;48.396;-4.472;2023-02-19T09:17:00;10.00;;;1.88;;
41709;SDS011;59402;48.396;-4.472;2023-02-19T09:19:26;6.53;;;1.60;;
41709;SDS011;59402;48.396;-4.472;2023-02-19T09:21:52;11.20;;;1.80;;
41709;SDS011;59402;48.396;-4.472;2023-02-19T09:24:18;8.82;;;1.83;;
41709;SDS011;59402;48.396;-4.472;2023-02-19T09:26:44;8.38;;;1.60;;
41709;SDS011;59402;48.396;-4.472;2023-02-19T09:29:12;8.10;;;1.92;;
41709;SDS011;59402;48.396;-4.472;2023-02-19T09:31:39;11.13;;;2.05;;
41709;SDS011;59402;48.396;-4.472;2023-02-19T09:34:05;9.45;;;1.60;;
41709;SDS011;59402;48.396;-4.472;2023-02-19T09:36:30;10.43;;;2.00;;
41709;SDS011;59402;48.396;-4.472;2023-02-19T09:38:58;6.70;;;1.30;;
41709;SDS011;59402;48.396;-4.472;2023-02-19T09:41:47;10.27;;;1.95;;
41709;SDS011;59402;48.396;-4.472;2023-02-19T09:44:36;9.68;;;1.90;;
41709;SDS011;59402;48.396;-4.472;2023-02-19T09:47:02;13.23;;;1.58;;
41709;SDS011;59402;48.396;-4.472;2023-02-19T09:49:57;11.93;;;1.80;;
41709;SDS011;59402;48.396;-4.472;2023-02-19T09:52:34;8.85;;;1.33;;
41709;SDS011;59402;48.396;-4.472;2023-02-19T09:55:02;7.80;;;1.55;;
41709;SDS011;59402;48.396;-4.472;2023-02-19T09:57:33;9.55;;;1.60;;
41709;SDS011;59402;48.396;-4.472;2023-02-19T10:03:01;9.65;;;2.28;;
41709;SDS011;59402;48.396;-4.472;2023-02-19T10:05:30;7.80;;;1.42;;
41709;SDS011;59402;48.396;-4.472;2023-02-19T10:07:57;10.00;;;1.77;;
41709;SDS011;59402;48.396;-4.472;2023-02-19T10:10:24;11.52;;;2.42;;
41709;SDS011;59402;48.396;-4.472;2023-02-19T10:15:52;10.90;;;1.60;;
41709;SDS011;59402;48.396;-4.472;2023-02-19T10:18:21;9.60;;;1.80;;
41709;SDS011;59402;48.396;-4.472;2023-02-19T10:20:48;10.00;;;1.65;;
41709;SDS011;59402;48.396;-4.472;2023-02-19T10:23:15;10.70;;;2.00;;
41709;SDS011;59402;48.396;-4.472;2023-02-19T10:25:45;9.48;;;1.67;;
41709;SDS011;59402;48.396;-4.472;2023-02-19T10:28:22;12.13;;;1.92;;
41709;SDS011;59402;48.396;-4.472;2023-02-19T10:30:54;7.50;;;1.70;;
41709;SDS011;59402;48.396;-4.472;2023-02-19T10:33:21;8.32;;;1.75;;
41709;SDS011;59402;48.396;-4.472;2023-02-19T10:35:54;7.22;;;1.83;;
41709;SDS011;59402;48.396;-4.472;2023-02-19T10:38:29;12.48;;;1.83;;
41709;SDS011;59402;48.396;-4.472;2023-02-19T10:41:00;7.00;;;1.67;;
41709;SDS011;59402;48.396;-4.472;2023-02-19T10:43:53;10.27;;;1.83;;
41709;SDS011;59402;48.396;-4.472;2023-02-19T10:46:21;10.77;;;2.10;;
41709;SDS011;59402;48.396;-4.472;2023-02-19T10:49:00;5.65;;;1.75;;
41709;SDS011;59402;48.396;-4.472;2023-02-19T10:51:32;10.50;;;1.85;;
41709;SDS011;59402;48.396;-4.472;2023-02-19T10:56:45;10.77;;;2.13;;
41709;SDS011;59402;48.396;-4.472;2023-02-19T10:59:14;9.88;;;1.70;;
41709;SDS011;59402;48.396;-4.472;2023-02-19T11:01:53;8.25;;;1.60;;
41709;SDS011;59402;48.396;-4.472;2023-02-19T11:04:30;13.88;;;2.53;;
41709;SDS011;59402;48.396;-4.472;2023-02-19T11:07:09;8.73;;;1.50;;
41709;SDS011;59402;48.396;-4.472;2023-02-19T11:09:37;6.60;;;1.45;;
41709;SDS011;59402;48.396;-4.472;2023-02-19T11:12:05;6.90;;;1.80;;
41709;SDS011;59402;48.396;-4.472;2023-02-19T11:14:31;12.13;;;2.47;;
41709;SDS011;59402;48.396;-4.472;2023-02-19T11:16:58;11.77;;;1.92;;
41709;SDS011;59402;48.396;-4.472;2023-02-19T11:19:34;9.00;;;2.10;;
41709;SDS011;59402;48.396;-4.472;2023-02-19T11:22:18;7.60;;;1.65;;
41709;SDS011;59402;48.396;-4.472;2023-02-19T11:24:49;12.90;;;2.00;;
41709;SDS011;59402;48.396;-4.472;2023-02-19T11:27:23;10.20;;;1.80;;
41709;SDS011;59402;48.396;-4.472;2023-02-19T11:29:49;6.93;;;1.50;;
41709;SDS011;59402;48.396;-4.472;2023-02-19T11:34:44;8.43;;;1.92;;
41709;SDS011;59402;48.396;-4.472;2023-02-19T11:37:15;8.05;;;1.85;;
41709;SDS011;59402;48.396;-4.472;2023-02-19T11:39:46;8.07;;;1.58;;
41709;SDS011;59402;48.396;-4.472;2023-02-19T11:48:06;10.40;;;1.80;;
41709;SDS011;59402;48.396;-4.472;2023-02-19T11:50:53;9.75;;;2.10;;
41709;SDS011;59402;48.396;-4.472;2023-02-19T11:53:24;11.50;;;2.28;;
41709;SDS011;59402;48.396;-4.472;2023-02-19T12:18:42;8.35;;;1.45;;
41709;SDS011;59402;48.396;-4.472;2023-02-19T12:32:30;8.15;;;1.55;;
41709;SDS011;59402;48.396;-4.472;2023-02-19T12:35:07;7.47;;;2.00;;
41709;SDS011;59402;48.396;-4.472;2023-02-19T12:40:37;7.82;;;1.58;;
41709;SDS011;59402;48.396;-4.472;2023-02-19T12:46:00;7.38;;;1.60;;
41709;SDS011;59402;48.396;-4.472;2023-02-19T12:51:26;9.88;;;1.90;;
41709;SDS011;59402;48.396;-4.472;2023-02-19T12:57:00;6.75;;;1.73;;
41709;SDS011;59402;48.396;-4.472;2023-02-19T13:02:15;11.40;;;1.88;;
41709;SDS011;59402;48.396;-4.472;2023-02-19T13:04:50;7.03;;;1.50;;
41709;SDS011;59402;48.396;-4.472;2023-02-19T13:07:56;7.85;;;1.67;;
41709;SDS011;59402;48.396;-4.472;2023-02-19T13:10:32;7.10;;;1.70;;
41709;SDS011;59402;48.396;-4.472;2023-02-19T13:13:05;3.67;;;1.02;;
41709;SDS011;59402;48.396;-4.472;2023-02-19T13:15:39;6.78;;;1.40;;
41709;SDS011;59402;48.396;-4.472;2023-02-19T13:18:11;6.57;;;1.27;;
41709;SDS011;59402;48.396;-4.472;2023-02-19T13:20:41;5.40;;;1.30;;
41709;SDS011;59402;48.396;-4.472;2023-02-19T13:23:18;8.05;;;1.70;;
41709;SDS011;59402;48.396;-4.472;2023-02-19T13:31:48;6.13;;;1.50;;
41709;SDS011;59402;48.396;-4.472;2023-02-19T13:37:11;7.82;;;1.70;;
41709;SDS011;59402;48.396;-4.472;2023-02-19T13:39:44;6.07;;;1.30;;
41709;SDS011;59402;48.396;-4.472;2023-02-19T13:44:53;7.10;;;1.27;;
41709;SDS011;59402;48.396;-4.472;2023-02-19T13:50:18;5.60;;;1.33;;
41709;SDS011;59402;48.396;-4.472;2023-02-19T13:52:54;4.40;;;1.10;;
41709;SDS011;59402;48.396;-4.472;2023-02-19T14:00:59;6.70;;;1.23;;
41709;SDS011;59402;48.396;-4.472;2023-02-19T14:06:11;3.63;;;0.80;;
41709;SDS011;59402;48.396;-4.472;2023-02-19T14:11:18;3.78;;;0.90;;
41709;SDS011;59402;48.396;-4.472;2023-02-19T14:16:51;3.55;;;0.85;;
41709;SDS011;59402;48.396;-4.472;2023-02-19T14:33:35;3.47;;;0.98;;
41709;SDS011;59402;48.396;-4.472;2023-02-19T14:39:03;3.40;;;0.85;;
41709;SDS011;59402;48.396;-4.472;2023-02-19T14:41:32;3.35;;;1.00;;
41709;SDS011;59402;48.396;-4.472;2023-02-19T14:44:00;2.50;;;0.75;;
41709;SDS011;59402;48.396;-4.472;2023-02-19T14:46:30;3.47;;;0.77;;
41709;SDS011;59402;48.396;-4.472;2023-02-19T14:49:46;4.20;;;0.90;;
41709;SDS011;59402;48.396;-4.472;2023-02-19T14:51:56;4.97;;;0.82;;
41709;SDS011;59402;48.396;-4.472;2023-02-19T14:54:43;2.35;;;0.80;;
41709;SDS011;59402;48.396;-4.472;2023-02-19T14:57:16;4.28;;;1.10;;
41709;SDS011;59402;48.396;-4.472;2023-02-19T14:59:50;3.70;;;0.80;;
41709;SDS011;59402;48.396;-4.472;2023-02-19T15:04:50;2.63;;;0.70;;
41709;SDS011;59402;48.396;-4.472;2023-02-19T15:07:17;1.80;;;0.70;;
41709;SDS011;59402;48.396;-4.472;2023-02-19T15:09:49;3.63;;;0.73;;
41709;SDS011;59402;48.396;-4.472;2023-02-19T15:12:17;3.33;;;0.93;;
41709;SDS011;59402;48.396;-4.472;2023-02-19T15:14:45;3.75;;;0.68;;
41709;SDS011;59402;48.396;-4.472;2023-02-19T15:17:15;3.63;;;0.80;;
41709;SDS011;59402;48.396;-4.472;2023-02-19T15:22:18;2.75;;;0.63;;
41709;SDS011;59402;48.396;-4.472;2023-02-19T15:24:46;2.58;;;0.88;;
41709;SDS011;59402;48.396;-4.472;2023-02-19T15:27:18;5.03;;;0.73;;
41709;SDS011;59402;48.396;-4.472;2023-02-19T15:29:47;4.50;;;0.82;;
41709;SDS011;59402;48.396;-4.472;2023-02-19T15:32:18;2.80;;;0.70;;
41709;SDS011;59402;48.396;-4.472;2023-02-19T15:34:57;2.97;;;0.70;;
41709;SDS011;59402;48.396;-4.472;2023-02-19T15:37:24;2.85;;;0.80;;
41709;SDS011;59402;48.396;-4.472;2023-02-19T15:39:52;3.15;;;0.68;;
41709;SDS011;59402;48.396;-4.472;2023-02-19T15:42:19;6.30;;;0.90;;
41709;SDS011;59402;48.396;-4.472;2023-02-19T15:44:54;2.67;;;0.70;;
41709;SDS011;59402;48.396;-4.472;2023-02-19T15:47:47;3.63;;;0.82;;
41709;SDS011;59402;48.396;-4.472;2023-02-19T15:50:38;4.75;;;0.77;;
41709;SDS011;59402;48.396;-4.472;2023-02-19T15:55:40;2.85;;;1.00;;
41709;SDS011;59402;48.396;-4.472;2023-02-19T15:58:25;2.17;;;0.80;;
41709;SDS011;59402;48.396;-4.472;2023-02-19T16:00:57;4.45;;;1.00;;
41709;SDS011;59402;48.396;-4.472;2023-02-19T16:03:30;2.17;;;0.60;;
41709;SDS011;59402;48.396;-4.472;2023-02-19T16:06:00;3.50;;;1.08;;
41709;SDS011;59402;48.396;-4.472;2023-02-19T16:08:27;3.63;;;1.48;;
41709;SDS011;59402;48.396;-4.472;2023-02-19T16:10:56;3.38;;;0.75;;
41709;SDS011;59402;48.396;-4.472;2023-02-19T16:13:24;3.13;;;0.90;;
41709;SDS011;59402;48.396;-4.472;2023-02-19T16:16:33;4.75;;;0.85;;
41709;SDS011;59402;48.396;-4.472;2023-02-19T16:18:43;4.43;;;1.10;;
41709;SDS011;59402;48.396;-4.472;2023-02-19T16:23:40;2.70;;;0.63;;
41709;SDS011;59402;48.396;-4.472;2023-02-19T16:26:07;5.57;;;1.10;;
41709;SDS011;59402;48.396;-4.472;2023-02-19T16:28:35;3.97;;;0.80;;
41709;SDS011;59402;48.396;-4.472;2023-02-19T16:31:06;3.33;;;0.80;;
41709;SDS011;59402;48.396;-4.472;2023-02-19T16:39:02;10.32;;;3.90;;
41709;SDS011;59402;48.396;-4.472;2023-02-19T16:41:31;8.20;;;3.40;;
41709;SDS011;59402;48.396;-4.472;2023-02-19T16:43:58;6.80;;;1.93;;
41709;SDS011;59402;48.396;-4.472;2023-02-19T16:46:25;3.85;;;1.40;;
41709;SDS011;59402;48.396;-4.472;2023-02-19T16:48:51;2.60;;;1.00;;
41709;SDS011;59402;48.396;-4.472;2023-02-19T16:51:21;3.22;;;1.05;;
41709;SDS011;59402;48.396;-4.472;2023-02-19T16:53:51;3.42;;;1.00;;
41709;SDS011;59402;48.396;-4.472;2023-02-19T16:56:18;8.68;;;1.83;;
41709;SDS011;59402;48.396;-4.472;2023-02-19T16:58:47;1.90;;;0.73;;
41709;SDS011;59402;48.396;-4.472;2023-02-19T17:01:13;4.15;;;1.10;;
41709;SDS011;59402;48.396;-4.472;2023-02-19T17:03:39;4.65;;;1.50;;
41709;SDS011;59402;48.396;-4.472;2023-02-19T17:06:05;5.95;;;1.45;;
41709;SDS011;59402;48.396;-4.472;2023-02-19T17:08:38;5.72;;;1.20;;
41709;SDS011;59402;48.396;-4.472;2023-02-19T17:11:09;4.00;;;1.85;;
41709;SDS011;59402;48.396;-4.472;2023-02-19T17:13:36;4.70;;;1.50;;
41709;SDS011;59402;48.396;-4.472;2023-02-19T17:16:02;7.93;;;1.30;;
41709;SDS011;59402;48.396;-4.472;2023-02-19T17:18:28;4.75;;;1.38;;